Time;durP1;ratioP1;P1;durP2;ratioP2;P2;SDS_P1;SDS_P2;PMS_P1;PMS_P2;Temp;Humidity;BMP_temperature;BMP_pressure;BME280_temperature;BME280_humidity;BME280_pressure;Samples;Min_cycle;Max_cycle;Signal;HPM_P1;HPM_P2
2021/03/19 00:00:08;;;;;;;8.02;4.97;;;5.30;79.00;5.60;99542.00;;;;341903;28;90866;-89
2021/03/19 00:00:22;;;;;;;8.02;4.85;;;5.30;79.00;5.50;99545.00;;;;344210;28;83764;-89
2021/03/19 00:00:34;;;;;;;6.57;4.97;;;5.30;78.90;5.60;99555.00;;;;338714;28;91321;-89
2021/03/19 00:00:45;;;;;;;8.15;5.78;;;5.30;78.90;5.80;99547.00;;;;341896;28;84473;-87
2021/03/19 00:00:57;;;;;;;7.82;5.88;;;5.30;79.00;5.80;99552.00;;;;338776;28;92272;-89
2021/03/19 00:01:09;;;;;;;8.05;5.78;;;5.30;79.10;5.80;99550.00;;;;344549;28;82418;-89
2021/03/19 00:01:20;;;;;;;7.88;5.78;;;5.30;79.10;5.80;99542.00;;;;338792;28;92060;-90
2021/03/19 00:01:33;;;;;;;8.25;5.88;;;5.40;79.10;5.70;99546.00;;;;343107;28;83309;-89
2021/03/19 00:01:45;;;;;;;6.45;5.55;;;5.30;78.80;5.80;99541.00;;;;341281;28;90828;-89
2021/03/19 00:01:57;;;;;;;6.25;5.30;;;5.40;78.90;5.80;99542.00;;;;341601;28;83533;-88
2021/03/19 00:02:09;;;;;;;6.72;5.53;;;5.40;78.90;5.80;99549.00;;;;340083;28;90877;-89
2021/03/19 00:02:20;;;;;;;6.88;5.65;;;5.40;78.90;5.80;99542.00;;;;341760;28;83507;-90
2021/03/19 00:02:32;;;;;;;6.85;5.28;;;5.40;78.80;5.80;99547.00;;;;341212;28;91958;-88
2021/03/19 00:02:44;;;;;;;6.57;5.38;;;5.40;78.70;5.60;99550.00;;;;343034;28;84585;-89
2021/03/19 00:02:56;;;;;;;7.40;5.45;;;5.40;78.70;5.40;99547.00;;;;340923;28;91782;-89
2021/03/19 00:03:07;;;;;;;7.57;5.38;;;5.30;78.60;5.40;99547.00;;;;342801;28;84272;-89
2021/03/19 00:03:19;;;;;;;6.90;5.13;;;5.40;78.70;5.40;99550.00;;;;341109;28;91588;-89
2021/03/19 00:03:31;;;;;;;7.10;5.28;;;5.40;78.70;5.40;99552.00;;;;341534;28;83648;-89
2021/03/19 00:03:43;;;;;;;7.20;5.25;;;5.30;78.70;5.30;99543.00;;;;343828;28;90989;-89
2021/03/19 00:03:55;;;;;;;7.03;5.13;;;5.30;78.70;5.30;99546.00;;;;342988;28;83462;-89
2021/03/19 00:04:08;;;;;;;6.60;4.93;;;5.20;78.80;5.30;99541.00;;;;343899;28;92524;-89
2021/03/19 00:04:19;;;;;;;6.97;4.78;;;5.20;79.00;5.30;99549.00;;;;344206;28;83471;-88
2021/03/19 00:04:31;;;;;;;7.50;4.80;;;5.20;79.00;5.30;99546.00;;;;342649;28;90975;-89
2021/03/19 00:04:44;;;;;;;7.38;5.15;;;5.20;79.00;5.40;99545.00;;;;344498;28;83465;-89
2021/03/19 00:04:55;;;;;;;6.30;4.85;;;5.20;79.20;5.50;99544.00;;;;340037;28;92695;-89
2021/03/19 00:05:09;;;;;;;6.15;4.80;;;5.20;79.60;5.60;99544.00;;;;342846;28;84824;-89
2021/03/19 00:05:22;;;;;;;8.10;5.63;;;5.20;79.70;5.50;99547.00;;;;340071;28;91172;-89
2021/03/19 00:05:34;;;;;;;8.07;5.63;;;5.20;79.30;5.60;99544.00;;;;340339;28;83610;-89
2021/03/19 00:05:46;;;;;;;8.18;5.65;;;5.20;79.20;5.60;99547.00;;;;340028;28;91343;-88
2021/03/19 00:05:58;;;;;;;9.73;5.70;;;5.30;79.20;5.60;99547.00;;;;341756;28;82482;-89
2021/03/19 00:06:09;;;;;;;9.48;5.95;;;5.30;79.30;5.60;99542.00;;;;340268;28;92426;-89
2021/03/19 00:06:21;;;;;;;6.30;5.25;;;5.20;79.30;5.60;99544.00;;;;339261;28;83927;-89
2021/03/19 00:06:32;;;;;;;6.10;5.20;;;5.20;79.40;5.70;99541.00;;;;342618;28;91638;-88
2021/03/19 00:06:44;;;;;;;7.13;5.32;;;5.20;79.50;5.80;99546.00;;;;339039;28;84668;-89
2021/03/19 00:06:55;;;;;;;7.05;5.40;;;5.30;79.60;5.70;99548.00;;;;342383;28;91931;-89
2021/03/19 00:07:07;;;;;;;8.00;5.70;;;5.30;79.50;5.50;99549.00;;;;338808;28;83606;-89
2021/03/19 00:07:18;;;;;;;7.97;5.80;;;5.30;79.30;5.30;99555.00;;;;342623;28;91680;-89
2021/03/19 00:07:46;;;;;;;7.97;5.85;;;5.20;79.00;5.20;99547.00;;;;338961;28;83946;-89
2021/03/19 00:07:58;;;;;;;6.32;5.50;;;5.20;79.00;5.20;99542.00;;;;340621;28;90878;-88
2021/03/19 00:08:09;;;;;;;7.68;5.68;;;5.10;79.00;5.20;99541.00;;;;343007;28;84565;-89
2021/03/19 00:08:21;;;;;;;7.90;5.30;;;5.10;79.00;5.30;99549.00;;;;342548;28;90551;-89
2021/03/19 00:08:32;;;;;;;6.90;5.25;;;5.10;79.10;5.30;99540.00;;;;345530;28;83615;-88
2021/03/19 00:08:43;;;;;;;6.10;5.10;;;5.10;79.40;5.30;99540.00;;;;341379;28;91619;-89
2021/03/19 00:08:55;;;;;;;5.88;5.03;;;5.10;79.50;5.40;99540.00;;;;344153;28;84604;-89
2021/03/19 00:09:08;;;;;;;6.40;5.15;;;5.10;79.70;5.50;99539.00;;;;342019;28;90148;-89
2021/03/19 00:09:19;;;;;;;6.70;5.20;;;5.10;79.70;5.50;99542.00;;;;338801;28;83642;-89
2021/03/19 00:09:31;;;;;;;6.70;5.50;;;5.10;79.70;5.50;99546.00;;;;344064;28;91707;-89
2021/03/19 00:09:43;;;;;;;6.63;5.57;;;5.10;79.70;5.50;99553.00;;;;341539;28;83560;-89
2021/03/19 00:09:54;;;;;;;6.75;5.35;;;5.10;79.70;5.60;99550.00;;;;341330;28;90808;-89
2021/03/19 00:10:07;;;;;;;7.10;5.13;;;5.10;79.80;5.40;99551.00;;;;341561;28;84678;-89
2021/03/19 00:10:23;;;;;;;5.88;4.57;;;5.10;79.90;5.60;99549.00;;;;344222;28;88330;-89
2021/03/19 00:10:35;;;;;;;6.85;4.75;;;5.10;80.00;5.50;99550.00;;;;341422;28;83835;-89
2021/03/19 00:10:46;;;;;;;8.30;5.50;;;5.20;80.10;5.60;99537.00;;;;340016;28;90794;-89
2021/03/19 00:10:59;;;;;;;7.13;5.30;;;5.20;80.10;5.60;99544.00;;;;343081;28;84218;-89
2021/03/19 00:11:10;;;;;;;6.82;5.55;;;5.20;80.10;5.60;99544.00;;;;341042;28;91710;-89
2021/03/19 00:11:22;;;;;;;6.43;5.65;;;5.20;79.90;5.50;99550.00;;;;343082;28;83613;-88
2021/03/19 00:11:35;;;;;;;8.10;5.68;;;5.20;79.80;5.60;99542.00;;;;338506;28;91202;-89
2021/03/19 00:11:47;;;;;;;9.15;5.65;;;5.20;79.90;5.60;99544.00;;;;338774;28;84827;-89
2021/03/19 00:11:59;;;;;;;9.43;6.00;;;5.20;80.50;5.60;99545.00;;;;336047;28;88407;-89
2021/03/19 00:12:10;;;;;;;7.47;6.07;;;5.20;79.80;5.60;99538.00;;;;340916;28;83579;-89
2021/03/19 00:12:22;;;;;;;7.72;5.65;;;5.20;79.70;5.60;99545.00;;;;340290;28;92088;-89
2021/03/19 00:12:34;;;;;;;7.30;5.78;;;5.30;79.70;5.70;99544.00;;;;341488;28;83496;-89
2021/03/19 00:12:46;;;;;;;7.45;6.10;;;5.30;79.70;5.60;99535.00;;;;341114;28;91700;-89
2021/03/19 00:13:01;;;;;;;7.25;5.72;;;5.30;79.60;5.60;99542.00;;;;340464;28;83516;-88
2021/03/19 00:13:13;;;;;;;6.60;5.22;;;5.30;79.50;5.50;99544.00;;;;341994;28;90564;-89
2021/03/19 00:13:24;;;;;;;7.85;5.63;;;5.30;79.50;5.60;99540.00;;;;343118;28;83663;-89
2021/03/19 00:13:36;;;;;;;9.48;5.85;;;5.30;79.50;5.60;99536.00;;;;342548;28;92005;-89
2021/03/19 00:13:47;;;;;;;10.13;5.50;;;5.30;79.40;5.50;99544.00;;;;341570;28;85066;-89
2021/03/19 00:13:59;;;;;;;8.55;5.47;;;5.30;79.30;5.70;99541.00;;;;338624;28;91815;-88
2021/03/19 00:14:11;;;;;;;7.22;5.10;;;5.30;79.40;5.80;99537.00;;;;341639;28;83596;-89
2021/03/19 00:14:22;;;;;;;6.38;5.13;;;5.30;79.40;5.80;99535.00;;;;342457;28;90827;-89
2021/03/19 00:14:34;;;;;;;6.40;5.20;;;5.40;79.50;5.80;99539.00;;;;341802;28;83329;-89
2021/03/19 00:14:46;;;;;;;6.63;5.55;;;5.30;79.60;5.70;99548.00;;;;343848;28;90606;-89
2021/03/19 00:14:58;;;;;;;6.78;5.45;;;5.40;79.70;5.70;99543.00;;;;338938;28;83917;-89
2021/03/19 00:15:10;;;;;;;6.97;5.32;;;5.40;79.50;5.70;99541.00;;;;340339;28;90857;-89
2021/03/19 00:15:24;;;;;;;8.57;5.18;;;5.40;79.40;5.80;99548.00;;;;343036;28;83319;-89
2021/03/19 00:15:40;;;;;;;8.07;5.15;;;5.40;79.50;5.80;99541.00;;;;339892;28;89652;-88
2021/03/19 00:15:52;;;;;;;6.38;5.13;;;5.40;79.50;5.80;99540.00;;;;340118;28;83618;-89
2021/03/19 00:16:05;;;;;;;6.78;4.78;;;5.40;79.60;5.70;99543.00;;;;342712;28;89840;-89
2021/03/19 00:16:16;;;;;;;7.32;4.97;;;5.40;79.50;5.80;99538.00;;;;341368;28;83616;-89
2021/03/19 00:16:28;;;;;;;8.85;5.05;;;5.40;79.50;5.70;99540.00;;;;342648;28;89821;-89
2021/03/19 00:16:40;;;;;;;7.80;5.18;;;5.40;79.40;5.60;99539.00;;;;343050;28;83502;-89
2021/03/19 00:16:52;;;;;;;5.95;5.38;;;5.40;79.20;5.60;99553.00;;;;342825;28;86881;-88
2021/03/19 00:17:04;;;;;;;5.97;5.38;;;5.40;79.20;5.70;99540.00;;;;340128;28;83760;-89
2021/03/19 00:17:16;;;;;;;6.53;5.38;;;5.40;79.20;5.80;99538.00;;;;339909;28;90663;-89
2021/03/19 00:17:27;;;;;;;6.68;5.00;;;5.40;79.40;5.90;99535.00;;;;341575;28;83541;-89
2021/03/19 00:17:40;;;;;;;6.68;4.97;;;5.40;79.60;5.90;99542.00;;;;341371;28;89416;-89
2021/03/19 00:18:09;;;;;;;6.38;5.05;;;5.40;79.70;5.70;99538.00;;;;340255;28;82636;-89
2021/03/19 00:18:21;;;;;;;6.88;5.22;;;5.40;79.60;5.60;99536.00;;;;342848;28;86530;-88
2021/03/19 00:18:37;;;;;;;6.43;5.05;;;5.40;79.60;5.70;99540.00;;;;342813;28;82432;-90
2021/03/19 00:18:48;;;;;;;7.10;5.53;;;5.40;79.40;5.80;99536.00;;;;341390;28;89759;-89
2021/03/19 00:19:00;;;;;;;7.75;5.38;;;5.50;79.70;5.80;99544.00;;;;339123;28;82397;-89
2021/03/19 00:19:12;;;;;;;7.32;5.13;;;5.50;79.70;5.80;99530.00;;;;339317;28;89451;-89
2021/03/19 00:19:23;;;;;;;7.35;5.35;;;5.40;79.70;5.70;99541.00;;;;342923;28;82968;-90
2021/03/19 00:19:35;;;;;;;7.75;5.65;;;5.40;79.70;5.70;99539.00;;;;341124;28;90951;-88
2021/03/19 00:19:46;;;;;;;7.28;5.47;;;5.40;79.70;5.70;99535.00;;;;341372;28;83551;-89
2021/03/19 00:19:58;;;;;;;8.07;5.78;;;5.50;79.70;5.90;99543.00;;;;340102;28;88674;-89
2021/03/19 00:20:10;;;;;;;7.32;5.63;;;5.50;79.80;5.90;99541.00;;;;341792;28;83437;-89
2021/03/19 00:20:22;;;;;;;7.03;5.65;;;5.50;79.70;5.90;99539.00;;;;340014;28;88778;-90
2021/03/19 00:20:37;;;;;;;6.18;5.18;;;5.50;79.60;5.80;99540.00;;;;341668;28;83328;-89
2021/03/19 00:20:48;;;;;;;7.10;5.50;;;5.50;79.50;5.80;99535.00;;;;342452;28;89813;-89
2021/03/19 00:21:00;;;;;;;7.53;5.63;;;5.50;79.50;5.80;99536.00;;;;339020;28;83353;-90
2021/03/19 00:21:11;;;;;;;7.25;5.32;;;5.50;79.30;5.70;99534.00;;;;341678;28;88842;-89
2021/03/19 00:21:23;;;;;;;6.80;5.35;;;5.50;79.20;5.80;99537.00;;;;340880;28;82350;-89
2021/03/19 00:21:35;;;;;;;5.95;4.95;;;5.50;79.20;5.80;99532.00;;;;338628;28;90726;-89
2021/03/19 00:21:46;;;;;;;5.28;4.72;;;5.50;79.30;5.90;99537.00;;;;341466;28;83873;-87
2021/03/19 00:21:58;;;;;;;5.28;4.78;;;5.50;79.60;5.90;99530.00;;;;339998;28;89874;-89
2021/03/19 00:22:09;;;;;;;5.97;5.28;;;5.50;79.70;5.90;99540.00;;;;344479;28;82350;-89
2021/03/19 00:22:21;;;;;;;7.65;5.88;;;5.50;79.70;5.80;99532.00;;;;341409;28;89527;-90
2021/03/19 00:22:32;;;;;;;7.80;5.78;;;5.50;80.20;5.60;99540.00;;;;343016;28;82506;-89
2021/03/19 00:22:44;;;;;;;8.13;5.45;;;5.50;79.20;5.40;99534.00;;;;342763;28;88286;-89
2021/03/19 00:22:56;;;;;;;7.32;5.30;;;5.40;78.70;5.60;99537.00;;;;338924;28;83436;-90
2021/03/19 00:23:08;;;;;;;7.55;5.47;;;5.40;78.90;5.80;99538.00;;;;342626;28;89861;-89
2021/03/19 00:23:19;;;;;;;7.47;5.60;;;5.50;79.20;5.90;99536.00;;;;345790;28;84804;-89
2021/03/19 00:23:31;;;;;;;7.57;5.90;;;5.40;79.30;5.70;99536.00;;;;341416;28;88902;-89
2021/03/19 00:23:42;;;;;;;8.02;6.20;;;5.40;79.20;5.60;99537.00;;;;343161;28;82614;-89
2021/03/19 00:23:54;;;;;;;7.13;5.85;;;5.50;79.10;5.40;99539.00;;;;344002;28;89100;-89
2021/03/19 00:24:06;;;;;;;7.05;5.70;;;5.40;78.80;5.40;99540.00;;;;340441;28;83328;-89
2021/03/19 00:24:18;;;;;;;6.80;5.28;;;5.40;78.80;5.70;99544.00;;;;338810;28;89469;-88
2021/03/19 00:24:29;;;;;;;7.10;5.78;;;5.40;79.00;5.80;99534.00;;;;340123;28;82815;-89
2021/03/19 00:24:40;;;;;;;7.78;5.72;;;5.40;79.10;5.90;99538.00;;;;339574;28;87218;-89
2021/03/19 00:24:52;;;;;;;8.05;5.75;;;5.40;79.30;5.80;99535.00;;;;339951;28;83865;-89
2021/03/19 00:25:07;;;;;;;8.20;5.65;;;5.40;79.30;5.70;99541.00;;;;341347;28;89960;-89
2021/03/19 00:25:18;;;;;;;12.82;5.70;;;5.40;79.10;5.60;99537.00;;;;341667;28;83713;-88
2021/03/19 00:25:29;;;;;;;12.75;5.82;;;5.40;79.10;5.60;99536.00;;;;342373;28;92006;-89
2021/03/19 00:25:41;;;;;;;7.10;5.65;;;5.40;79.10;5.60;99528.00;;;;343079;28;83493;-89
2021/03/19 00:25:53;;;;;;;6.63;5.50;;;5.30;79.10;5.60;99541.00;;;;344078;28;88385;-88
2021/03/19 00:26:04;;;;;;;8.82;5.50;;;5.30;79.10;5.60;99536.00;;;;339074;28;83430;-89
2021/03/19 00:26:16;;;;;;;9.52;5.60;;;5.40;79.80;5.50;99535.00;;;;341402;28;87902;-89
2021/03/19 00:26:28;;;;;;;8.30;5.74;;;5.30;79.10;5.40;99534.00;;;;341682;28;83579;-89
2021/03/19 00:26:40;;;;;;;6.93;5.72;;;5.40;79.10;5.60;99532.00;;;;341381;28;89875;-88
2021/03/19 00:26:51;;;;;;;6.65;5.80;;;5.30;79.10;5.70;99529.00;;;;337764;28;83396;-89
2021/03/19 00:27:03;;;;;;;5.93;5.30;;;5.30;79.40;5.70;99533.00;;;;342800;28;89556;-89
2021/03/19 00:27:14;;;;;;;9.02;5.65;;;5.30;79.60;5.70;99543.00;;;;341244;28;82432;-89
2021/03/19 00:27:26;;;;;;;10.55;5.65;;;5.30;79.50;5.70;99532.00;;;;342405;28;90922;-90
2021/03/19 00:27:38;;;;;;;12.25;6.38;;;5.30;79.50;5.70;99545.00;;;;342930;28;83366;-88
2021/03/19 00:27:49;;;;;;;7.93;6.32;;;5.30;79.60;5.60;99535.00;;;;339843;28;89480;-89
2021/03/19 00:28:02;;;;;;;8.90;6.20;;;5.30;79.40;5.50;99536.00;;;;340397;28;83422;-89
2021/03/19 00:28:15;;;;;;;9.88;6.40;;;5.30;79.40;5.30;99539.00;;;;340082;28;88000;-88
2021/03/19 00:28:26;;;;;;;10.63;6.57;;;5.30;79.20;5.40;99540.00;;;;340355;28;83416;-89
2021/03/19 00:28:38;;;;;;;8.35;6.20;;;5.30;79.20;5.50;99533.00;;;;341394;28;88333;-89
2021/03/19 00:28:50;;;;;;;7.38;6.03;;;5.30;79.30;5.70;99529.00;;;;341822;28;83274;-89
2021/03/19 00:29:01;;;;;;;6.32;5.70;;;5.30;79.70;5.80;99530.00;;;;341228;28;88738;-88
2021/03/19 00:29:12;;;;;;;6.90;6.10;;;5.30;80.00;5.80;99527.00;;;;341709;28;82457;-89
2021/03/19 00:29:24;;;;;;;7.88;6.13;;;5.30;80.20;5.80;99531.00;;;;338620;28;90641;-89
2021/03/19 00:29:36;;;;;;;7.60;6.07;;;5.30;80.80;5.90;99524.00;;;;343159;28;82517;-89
2021/03/19 00:29:47;;;;;;;8.00;6.07;;;5.30;80.20;5.90;99536.00;;;;341109;28;89602;-89
2021/03/19 00:29:59;;;;;;;7.88;5.60;;;5.30;80.10;5.80;99530.00;;;;341629;28;83704;-89
2021/03/19 00:30:11;;;;;;;8.70;5.63;;;5.40;80.20;5.80;99530.00;;;;340542;28;89905;-89
2021/03/19 00:30:23;;;;;;;8.20;5.85;;;5.40;80.20;5.80;99520.00;;;;341481;28;83308;-88
2021/03/19 00:30:35;;;;;;;7.88;5.45;;;5.40;80.00;5.60;99527.00;;;;341088;28;89862;-89
2021/03/19 00:30:47;;;;;;;7.85;5.85;;;5.40;79.60;5.50;99523.00;;;;341852;28;82284;-89
2021/03/19 00:30:58;;;;;;;7.28;5.68;;;5.40;79.20;5.50;99533.00;;;;341339;28;90149;-89
2021/03/19 00:31:10;;;;;;;6.75;5.80;;;5.40;79.10;5.50;99539.00;;;;343075;28;82514;-88
2021/03/19 00:31:22;;;;;;;5.97;5.30;;;5.40;79.10;5.60;99525.00;;;;339884;28;90337;-90
2021/03/19 00:31:34;;;;;;;6.50;5.70;;;5.30;79.10;5.70;99531.00;;;;339046;28;82410;-89
2021/03/19 00:31:46;;;;;;;6.53;5.80;;;5.40;79.30;5.60;99524.00;;;;339999;28;87932;-89
2021/03/19 00:31:59;;;;;;;6.60;5.70;;;5.40;79.10;5.60;99527.00;;;;341740;28;82451;-89
2021/03/19 00:32:10;;;;;;;6.47;5.22;;;5.40;79.10;5.60;99526.00;;;;342807;28;89723;-89
2021/03/19 00:32:22;;;;;;;6.53;4.90;;;5.30;79.10;5.80;99532.00;;;;344012;28;83788;-89
2021/03/19 00:32:35;;;;;;;6.90;5.03;;;5.40;79.30;5.80;99533.00;;;;341399;28;89659;-89
2021/03/19 00:32:47;;;;;;;7.30;5.78;;;5.40;79.40;5.80;99526.00;;;;339066;28;82354;-90
2021/03/19 00:33:05;;;;;;;7.05;5.63;;;5.40;79.50;5.70;99534.00;;;;341296;28;89891;-89
2021/03/19 00:33:17;;;;;;;7.72;5.40;;;5.40;79.40;5.40;99533.00;;;;342909;28;83533;-88
2021/03/19 00:33:29;;;;;;;8.32;5.53;;;5.30;79.10;5.40;99535.00;;;;342682;28;89279;-89
2021/03/19 00:33:41;;;;;;;8.95;5.75;;;5.30;79.10;5.40;99523.00;;;;342477;28;82532;-91
2021/03/19 00:33:52;;;;;;;6.78;5.18;;;5.30;79.10;5.40;99535.00;;;;339878;28;88563;-89
2021/03/19 00:34:04;;;;;;;6.20;5.03;;;5.30;79.10;5.50;99530.00;;;;341702;28;83716;-89
2021/03/19 00:34:16;;;;;;;6.00;5.18;;;5.30;79.10;5.60;99530.00;;;;339783;28;89740;-89
2021/03/19 00:34:27;;;;;;;6.57;5.50;;;5.30;79.30;5.50;99534.00;;;;338758;28;83501;-88
2021/03/19 00:34:39;;;;;;;6.75;5.70;;;5.30;79.40;5.40;99533.00;;;;341388;28;88892;-89
2021/03/19 00:34:51;;;;;;;8.23;5.97;;;5.30;79.40;5.30;99538.00;;;;339024;28;83482;-89
2021/03/19 00:35:03;;;;;;;8.27;6.18;;;5.30;79.40;5.30;99530.00;;;;341394;28;89104;-89
2021/03/19 00:35:15;;;;;;;7.80;6.80;;;5.20;79.40;5.30;99532.00;;;;340311;28;83648;-90
2021/03/19 00:35:27;;;;;;;7.47;6.78;;;5.20;79.50;5.40;99534.00;;;;338473;28;90245;-90
2021/03/19 00:35:39;;;;;;;7.15;6.32;;;5.20;79.60;5.40;99526.00;;;;343107;28;83316;-88
2021/03/19 00:35:50;;;;;;;7.35;5.65;;;5.20;79.70;5.40;99533.00;;;;339884;28;89010;-90
2021/03/19 00:36:02;;;;;;;7.35;5.68;;;5.20;79.80;5.40;99532.00;;;;341681;28;83380;-89
2021/03/19 00:36:14;;;;;;;6.85;5.57;;;5.20;79.90;5.50;99532.00;;;;343484;28;90071;-88
2021/03/19 00:36:25;;;;;;;6.70;5.75;;;5.20;80.10;5.60;99534.00;;;;340216;28;83573;-89
2021/03/19 00:36:37;;;;;;;6.64;5.60;;;5.10;80.10;5.60;99527.00;;;;341364;28;89669;-89
2021/03/19 00:36:49;;;;;;;6.35;5.40;;;5.20;80.30;5.60;99530.00;;;;341731;28;82364;-89
2021/03/19 00:37:01;;;;;;;7.13;5.85;;;5.20;80.30;5.70;99532.00;;;;342693;28;89621;-88
2021/03/19 00:37:12;;;;;;;6.70;5.93;;;5.20;80.30;5.70;99530.00;;;;343380;28;82622;-88
2021/03/19 00:37:24;;;;;;;6.28;5.68;;;5.20;80.30;5.80;99527.00;;;;342689;28;89562;-89
2021/03/19 00:37:36;;;;;;;6.20;5.60;;;5.20;80.30;5.80;99527.00;;;;341796;28;82408;-89
2021/03/19 00:37:48;;;;;;;6.10;5.50;;;5.30;80.20;5.70;99528.00;;;;341309;28;88087;-88
2021/03/19 00:38:00;;;;;;;7.38;5.63;;;5.30;80.10;5.60;99530.00;;;;338971;28;82512;-89
2021/03/19 00:38:12;;;;;;;7.93;5.85;;;5.30;80.00;5.60;99530.00;;;;342685;28;89429;-89
2021/03/19 00:38:24;;;;;;;6.97;6.20;;;5.30;80.00;5.50;99531.00;;;;343062;28;83529;-89
2021/03/19 00:38:35;;;;;;;7.05;6.30;;;5.30;79.90;5.30;99536.00;;;;340132;28;87961;-89
2021/03/19 00:38:47;;;;;;;6.43;5.70;;;5.20;79.70;5.30;99533.00;;;;342944;28;82660;-88
2021/03/19 00:38:59;;;;;;;6.72;5.85;;;5.20;79.70;5.20;99530.00;;;;342763;28;86966;-89
2021/03/19 00:39:10;;;;;;;6.15;5.50;;;5.20;79.70;5.20;99525.00;;;;341189;28;83593;-89
2021/03/19 00:39:22;;;;;;;6.18;5.20;;;5.20;79.70;5.10;99530.00;;;;341100;28;90857;-89
2021/03/19 00:39:33;;;;;;;6.18;5.32;;;5.10;79.70;5.20;99532.00;;;;343197;28;82432;-88
2021/03/19 00:39:45;;;;;;;5.90;5.30;;;5.10;79.70;5.30;99536.00;;;;341278;28;89457;-89
2021/03/19 00:39:57;;;;;;;5.72;5.00;;;5.10;79.80;5.20;99527.00;;;;343096;28;83436;-89
2021/03/19 00:40:11;;;;;;;6.20;4.95;;;5.10;80.10;5.10;99529.00;;;;341252;28;89841;-89
2021/03/19 00:40:23;;;;;;;7.10;6.20;;;5.10;80.10;5.10;99531.00;;;;340204;28;83471;-89
2021/03/19 00:40:35;;;;;;;7.63;6.35;;;5.00;80.10;5.20;99534.00;;;;339871;28;91019;-88
2021/03/19 00:40:47;;;;;;;6.72;5.63;;;5.00;80.10;5.20;99526.00;;;;342829;28;82487;-89
2021/03/19 00:40:59;;;;;;;6.47;5.72;;;5.00;80.30;5.40;99530.00;;;;339811;28;89789;-89
2021/03/19 00:41:10;;;;;;;7.28;6.07;;;5.00;80.50;5.20;99529.00;;;;338901;28;82821;-89
2021/03/19 00:41:22;;;;;;;8.43;6.22;;;5.00;80.60;5.10;99520.00;;;;340003;28;90679;-89
2021/03/19 00:41:34;;;;;;;7.25;5.43;;;5.00;80.50;5.10;99522.00;;;;340425;28;83360;-89
2021/03/19 00:41:45;;;;;;;7.20;5.47;;;5.00;80.50;5.10;99535.00;;;;338672;28;89321;-89
2021/03/19 00:41:57;;;;;;;7.25;5.57;;;5.00;80.40;5.30;99533.00;;;;341425;28;82737;-89
2021/03/19 00:42:09;;;;;;;9.07;5.78;;;5.00;80.50;5.40;99532.00;;;;337819;28;89990;-89
2021/03/19 00:42:20;;;;;;;9.13;5.60;;;5.00;80.70;5.40;99530.00;;;;342803;28;82521;-89
2021/03/19 00:42:32;;;;;;;9.35;5.43;;;5.00;80.70;5.40;99523.00;;;;341399;28;89986;-89
2021/03/19 00:42:45;;;;;;;7.15;5.03;;;5.00;80.60;5.30;99537.00;;;;341808;28;83378;-89
2021/03/19 00:42:57;;;;;;;7.05;5.18;;;5.00;80.60;5.20;99532.00;;;;341407;28;88181;-88
2021/03/19 00:43:10;;;;;;;7.05;5.38;;;5.00;80.50;5.20;99532.00;;;;340419;28;83418;-89
2021/03/19 00:43:21;;;;;;;6.28;5.68;;;5.00;80.50;5.40;99529.00;;;;338531;28;90911;-89
2021/03/19 00:43:33;;;;;;;6.13;5.53;;;5.00;80.60;5.40;99533.00;;;;342851;28;82878;-89
2021/03/19 00:43:45;;;;;;;6.22;5.32;;;5.00;80.60;5.30;99528.00;;;;338746;28;88835;-88
2021/03/19 00:43:56;;;;;;;7.35;5.68;;;5.00;80.70;5.30;99534.00;;;;341793;28;82377;-89
2021/03/19 00:44:07;;;;;;;7.45;5.85;;;5.00;80.60;5.40;99524.00;;;;341396;28;89606;-89
2021/03/19 00:44:19;;;;;;;6.78;5.57;;;5.00;80.60;5.50;99530.00;;;;343074;28;82451;-89
2021/03/19 00:44:31;;;;;;;6.22;5.18;;;5.00;80.60;5.40;99539.00;;;;343753;28;90536;-89
2021/03/19 00:44:43;;;;;;;7.40;5.60;;;5.00;80.80;5.50;99527.00;;;;341578;28;82377;-89
2021/03/19 00:44:55;;;;;;;6.85;5.45;;;5.00;80.80;5.50;99523.00;;;;342439;28;89922;-89
2021/03/19 00:45:07;;;;;;;6.13;5.53;;;5.00;80.60;5.60;99529.00;;;;339859;28;82722;-89
2021/03/19 00:45:19;;;;;;;5.95;5.35;;;5.10;80.60;5.60;99526.00;;;;340505;28;91865;-89
2021/03/19 00:45:33;;;;;;;5.97;5.35;;;5.10;80.50;5.50;99536.00;;;;341801;28;83295;-90
2021/03/19 00:45:45;;;;;;;6.43;5.20;;;5.10;80.50;5.60;99526.00;;;;341377;28;88944;-89
2021/03/19 00:45:57;;;;;;;6.57;4.90;;;5.10;80.40;5.60;99536.00;;;;340456;28;82457;-89
2021/03/19 00:46:08;;;;;;;7.13;5.10;;;5.10;80.50;5.60;99531.00;;;;342411;28;91428;-89
2021/03/19 00:46:20;;;;;;;6.75;5.60;;;5.10;80.50;5.50;99523.00;;;;341606;28;82513;-89
2021/03/19 00:46:32;;;;;;;6.80;5.90;;;5.10;80.40;5.50;99528.00;;;;341309;28;88188;-89
2021/03/19 00:46:44;;;;;;;6.75;5.75;;;5.10;80.40;5.50;99527.00;;;;342883;28;83971;-89
2021/03/19 00:46:56;;;;;;;6.53;5.47;;;5.10;80.40;5.60;99533.00;;;;341351;28;89809;-89
2021/03/19 00:47:08;;;;;;;6.07;4.95;;;5.20;80.50;5.70;99529.00;;;;341688;28;82557;-89
2021/03/19 00:47:19;;;;;;;6.63;5.07;;;5.20;80.60;5.70;99533.00;;;;341157;28;89710;-89
2021/03/19 00:47:32;;;;;;;7.65;5.40;;;5.20;80.40;5.60;99530.00;;;;344506;28;83361;-89
2021/03/19 00:47:44;;;;;;;7.35;5.75;;;5.20;80.20;5.30;99532.00;;;;339767;28;89673;-89
2021/03/19 00:47:56;;;;;;;7.28;5.75;;;5.20;79.90;5.20;99532.00;;;;341843;28;82431;-88
2021/03/19 00:48:08;;;;;;;6.90;5.72;;;5.10;79.80;5.20;99530.00;;;;341824;28;88511;-88
2021/03/19 00:48:33;;;;;;;6.65;5.70;;;5.10;79.80;5.10;99536.00;;;;340106;28;83391;-88
2021/03/19 00:48:45;;;;;;;6.68;5.68;;;5.10;80.10;5.10;99539.00;;;;342826;28;89916;-89
2021/03/19 00:48:57;;;;;;;6.60;5.75;;;5.00;80.20;5.00;99532.00;;;;341749;28;83191;-88
2021/03/19 00:49:09;;;;;;;6.55;5.75;;;5.00;80.30;5.10;99530.00;;;;339819;28;90797;-89
2021/03/19 00:49:21;;;;;;;6.95;5.90;;;4.90;80.30;5.30;99529.00;;;;340432;28;83675;-89
2021/03/19 00:49:32;;;;;;;7.57;5.90;;;4.90;80.40;5.20;99531.00;;;;342657;28;89195;-89
2021/03/19 00:49:44;;;;;;;7.95;5.80;;;4.90;80.70;5.10;99529.00;;;;343066;28;83395;-88
2021/03/19 00:49:56;;;;;;;8.45;5.65;;;4.90;80.70;5.10;99529.00;;;;341321;28;88756;-89
2021/03/19 00:50:12;;;;;;;7.22;5.70;;;4.90;80.70;5.30;99530.00;;;;342886;28;83518;-88
2021/03/19 00:50:31;;;;;;;6.85;6.05;;;4.90;80.70;5.20;99532.00;;;;341390;28;89565;-88
2021/03/19 00:50:43;;;;;;;6.15;5.50;;;4.90;81.10;5.20;99535.00;;;;341676;28;83507;-89
2021/03/19 00:50:55;;;;;;;6.45;5.75;;;4.90;81.20;5.20;99533.00;;;;339930;28;89462;-89
2021/03/19 00:51:07;;;;;;;6.63;5.93;;;4.90;81.10;5.20;99535.00;;;;341710;28;82399;-89
2021/03/19 00:51:18;;;;;;;6.78;6.07;;;4.90;81.10;5.10;99539.00;;;;338661;28;90008;-89
2021/03/19 00:51:30;;;;;;;7.03;6.07;;;4.90;81.10;5.00;99528.00;;;;343191;28;83445;-88
2021/03/19 00:51:42;;;;;;;8.88;6.53;;;4.90;81.10;5.00;99529.00;;;;342570;28;91827;-88
2021/03/19 00:51:54;;;;;;;9.05;6.20;;;4.80;81.00;5.10;99526.00;;;;340170;28;83634;-89
2021/03/19 00:52:05;;;;;;;7.10;5.50;;;4.80;80.90;5.20;99536.00;;;;341224;28;90866;-88
2021/03/19 00:52:17;;;;;;;7.03;5.30;;;4.80;80.90;5.20;99531.00;;;;340381;28;83630;-87
2021/03/19 00:52:28;;;;;;;6.80;5.47;;;4.80;81.10;5.20;99531.00;;;;341435;28;89762;-88
2021/03/19 00:52:40;;;;;;;6.63;5.10;;;4.90;81.20;5.30;99521.00;;;;340188;28;82713;-89
2021/03/19 00:52:52;;;;;;;6.70;5.10;;;4.80;81.20;5.30;99526.00;;;;340123;28;88404;-89
2021/03/19 00:53:04;;;;;;;7.57;5.57;;;4.90;81.50;5.30;99523.00;;;;341453;28;83702;-89
2021/03/19 00:53:16;;;;;;;8.10;5.95;;;4.80;81.50;5.40;99531.00;;;;339855;28;90075;-88
2021/03/19 00:53:27;;;;;;;7.72;5.95;;;4.90;81.60;5.40;99527.00;;;;340215;28;85467;-89
2021/03/19 00:53:40;;;;;;;6.18;5.55;;;4.90;81.60;5.40;99534.00;;;;342567;28;90789;-89
2021/03/19 00:53:51;;;;;;;6.05;5.32;;;4.90;81.50;5.30;99527.00;;;;342917;28;82420;-88
2021/03/19 00:54:03;;;;;;;6.32;5.45;;;4.90;81.40;5.30;99529.00;;;;341513;28;87959;-88
2021/03/19 00:54:15;;;;;;;6.55;5.55;;;4.90;81.30;5.30;99535.00;;;;341535;28;82703;-88
2021/03/19 00:54:26;;;;;;;7.00;5.80;;;4.90;81.30;5.20;99534.00;;;;339846;28;90549;-88
2021/03/19 00:54:38;;;;;;;7.32;5.72;;;4.90;81.30;5.20;99535.00;;;;341602;28;83385;-88
2021/03/19 00:54:49;;;;;;;7.53;5.78;;;4.90;81.40;5.40;99534.00;;;;338685;28;89993;-89
2021/03/19 00:55:01;;;;;;;6.95;5.45;;;4.90;81.50;5.30;99535.00;;;;339091;28;83375;-89
2021/03/19 00:55:13;;;;;;;7.70;5.38;;;4.90;81.60;5.30;99526.00;;;;339879;28;90188;-89
2021/03/19 00:55:25;;;;;;;7.30;5.35;;;4.90;81.50;5.20;99529.00;;;;341513;28;83342;-89
2021/03/19 00:55:36;;;;;;;7.50;5.95;;;4.90;81.40;5.30;99527.00;;;;343748;28;90820;-89
2021/03/19 00:55:51;;;;;;;8.23;6.07;;;4.90;81.40;5.30;99530.00;;;;341394;28;83763;-88